Time;durP1;ratioP1;P1;durP2;ratioP2;P2;SDS_P1;SDS_P2;PMS_P1;PMS_P2;Temp;Humidity;BMP_temperature;BMP_pressure;BME280_temperature;BME280_humidity;BME280_pressure;Samples;Min_cycle;Max_cycle;Signal;HPM_P1;HPM_P2
2021/12/17 00:01:52;;;;;;;29.25;13.18;;;;;;;3.35;100.00;148507.56;1737317;80;21130;-57
2021/12/17 00:04:02;;;;;;;33.50;14.10;;;;;;;3.37;100.00;148512.72;1721330;80;21521;-59
2021/12/17 00:08:54;;;;;;;32.45;13.83;;;;;;;3.40;100.00;148520.45;1708051;82;21196;-58
2021/12/17 00:11:22;;;;;;;34.53;13.78;;;;;;;3.43;100.00;148526.92;1704874;81;21022;-58
2021/12/17 00:13:49;;;;;;;31.60;14.13;;;;;;;3.44;100.00;148530.81;1710882;80;21387;-58
2021/12/17 00:16:21;;;;;;;29.77;13.60;;;;;;;3.47;100.00;148535.97;1735039;80;21570;-59
2021/12/17 00:19:07;;;;;;;33.50;14.38;;;;;;;3.49;100.00;148541.12;1738398;80;21099;-57
2021/12/17 00:48:47;;;;;;;35.88;17.12;;;;;;;3.63;100.00;148577.25;1742504;80;21860;-58
2021/12/17 00:54:18;;;;;;;42.62;16.73;;;;;;;3.52;100.00;148550.14;1658207;83;21062;-59
2021/12/17 00:56:38;;;;;;;34.30;16.48;;;;;;;3.51;100.00;148547.56;1728398;80;21111;-59
2021/12/17 00:59:06;;;;;;;37.15;17.27;;;;;;;3.51;100.00;148546.28;1724715;80;21045;-58
2021/12/17 01:01:33;;;;;;;39.48;17.82;;;;;;;3.54;100.00;148554.03;1719205;81;21949;-58
2021/12/17 01:04:00;;;;;;;37.55;17.75;;;;;;;3.54;100.00;148554.03;1694017;81;21663;-59
2021/12/17 01:06:27;;;;;;;40.48;18.25;;;;;;;3.51;100.00;148547.56;1699951;81;21121;-59
2021/12/17 01:08:55;;;;;;;42.85;17.82;;;;;;;3.48;100.00;148538.56;1728580;80;21119;-59
2021/12/17 01:11:25;;;;;;;39.75;17.65;;;;;;;3.51;100.00;148546.28;1705525;81;21048;-58
2021/12/17 01:13:56;;;;;;;45.48;19.50;;;;;;;3.55;100.00;148556.61;1696655;81;21687;-58
2021/12/17 01:16:25;;;;;;;40.23;17.73;;;;;;;3.59;100.00;148566.92;1703717;81;21037;-58
2021/12/17 01:35:46;;;;;;;42.20;19.10;;;;;;;3.66;100.00;148585.03;1722096;80;21084;-59
2021/12/17 01:41:31;;;;;;;38.83;18.15;;;;;;;3.63;100.00;148577.25;1703092;80;21802;-58
2021/12/17 01:43:47;;;;;;;42.55;18.67;;;;;;;3.60;100.00;148568.25;1742794;80;21064;-59
2021/12/17 01:46:20;;;;;;;47.70;20.05;;;;;;;3.60;100.00;148569.50;1695064;80;21068;-58
2021/12/17 01:49:05;;;;;;;41.65;17.80;;;;;;;3.62;100.00;148574.66;1714420;80;21105;-60
2021/12/17 01:59:20;;;;;;;38.08;17.05;;;;;;;3.66;100.00;148585.03;1642083;84;21709;-59
2021/12/17 01:59:34;;;;;;;35.30;17.85;;;;;;;3.70;100.00;148595.34;1639820;85;21552;-60
2021/12/17 02:02:01;;;;;;;40.63;18.35;;;;;;;3.70;100.00;148595.34;1662187;82;21069;-60
2021/12/17 02:04:27;;;;;;;39.55;18.32;;;;;;;3.70;100.00;148595.34;1677696;82;21072;-59
2021/12/17 02:06:54;;;;;;;38.30;17.37;;;;;;;3.70;100.00;148594.03;1677429;83;21124;-59
2021/12/17 02:10:07;;;;;;;37.88;17.87;;;;;;;3.71;100.00;148597.92;1703452;83;21011;-59
2021/12/17 02:28:59;;;;;;;34.92;16.87;;;;;;;3.83;100.00;148627.61;1738163;80;21097;-60
2021/12/17 02:31:30;;;;;;;34.23;17.57;;;;;;;3.86;100.00;148634.05;1727215;79;21602;-59
2021/12/17 02:34:03;;;;;;;30.90;15.40;;;;;;;3.89;100.00;148641.83;1745139;80;21540;-58
2021/12/17 02:36:33;;;;;;;35.35;17.30;;;;;;;3.89;100.00;148640.52;1740435;79;21976;-59
2021/12/17 02:39:36;;;;;;;33.75;16.57;;;;;;;3.89;100.00;148641.83;1709677;82;21473;-59
2021/12/17 02:47:11;;;;;;;32.50;16.25;;;;;;;3.90;100.00;148644.41;1719618;80;21769;-60
2021/12/17 02:49:41;;;;;;;29.77;15.20;;;;;;;3.89;100.00;148641.83;1747993;80;21071;-60
2021/12/17 02:52:08;;;;;;;31.33;15.95;;;;;;;3.87;100.00;148637.94;1723820;80;21203;-59
2021/12/17 02:54:36;;;;;;;32.30;16.05;;;;;;;3.86;100.00;148634.05;1721434;80;21328;-59
2021/12/17 02:57:05;;;;;;;27.13;13.78;;;;;;;3.86;100.00;148634.05;1750162;80;21072;-59
2021/12/17 02:59:36;;;;;;;26.00;13.95;;;;;;;3.87;100.00;148636.67;1731799;80;21768;-60
2021/12/17 03:02:07;;;;;;;28.02;14.43;;;;;;;3.90;100.00;148644.41;1748905;80;21080;-60
2021/12/17 03:04:37;;;;;;;26.60;14.15;;;;;;;3.95;100.00;148657.31;1731062;80;21172;-60
2021/12/17 03:07:05;;;;;;;28.50;13.48;;;;;;;3.98;100.00;148663.78;1744178;80;20945;-62
2021/12/17 03:10:00;;;;;;;24.75;12.82;;;;;;;3.97;100.00;148661.16;1721681;80;20993;-59
2021/12/17 03:12:01;;;;;;;25.15;12.73;;;;;;;3.97;100.00;148661.16;1685661;81;21109;-59
2021/12/17 03:14:29;;;;;;;22.58;12.98;;;;;;;3.97;100.00;148662.47;1707636;81;21365;-59
2021/12/17 03:17:07;;;;;;;24.87;12.82;;;;;;;3.96;100.00;148658.58;1701057;83;21314;-59
2021/12/17 03:23:26;;;;;;;24.47;13.90;;;;;;;3.95;100.00;148657.31;1711697;81;21061;-59
2021/12/17 03:24:38;;;;;;;;;;;;;;;3.97;100.00;148661.16;1716264;81;21126;-58
2021/12/17 03:27:05;;;;;;;23.60;13.08;;;;;;;3.97;100.00;148662.47;1731906;80;20177;-59
2021/12/17 03:29:33;;;;;;;25.62;12.65;;;;;;;3.98;100.00;148663.78;1731501;80;21008;-59
2021/12/17 03:32:03;;;;;;;23.73;12.37;;;;;;;3.96;100.00;148659.89;1725685;82;21039;-60
2021/12/17 03:34:30;;;;;;;26.52;13.60;;;;;;;3.97;100.00;148662.47;1699760;82;21092;-59
2021/12/17 03:36:57;;;;;;;30.30;14.53;;;;;;;3.96;100.00;148659.89;1709538;82;21658;-59
2021/12/17 03:39:27;;;;;;;24.40;13.30;;;;;;;3.93;100.00;148652.16;1728430;80;20996;-59
2021/12/17 03:41:55;;;;;;;22.98;12.53;;;;;;;3.92;100.00;148649.56;1728228;80;21041;-60
2021/12/17 03:44:29;;;;;;;22.07;11.68;;;;;;;3.93;100.00;148652.16;1730322;80;21501;-60
2021/12/17 03:47:00;;;;;;;19.73;11.08;;;;;;;3.92;100.00;148649.56;1736721;79;36336;-60
2021/12/17 03:49:28;;;;;;;21.80;11.53;;;;;;;3.94;100.00;148654.73;1749334;80;21782;-60
2021/12/17 03:52:05;;;;;;;22.62;12.73;;;;;;;3.94;100.00;148653.41;1735291;80;21556;-59
2021/12/17 03:54:35;;;;;;;21.70;11.55;;;;;;;3.96;100.00;148659.89;1737857;80;21063;-60
2021/12/17 03:57:10;;;;;;;19.55;11.03;;;;;;;3.95;100.00;148656.00;1745133;80;21108;-60
2021/12/17 03:59:36;;;;;;;21.57;10.10;;;;;;;3.94;100.00;148654.73;1734936;80;21075;-60
2021/12/17 04:02:04;;;;;;;18.27;10.40;;;;;;;3.94;100.00;148654.73;1722071;82;21509;-58
2021/12/17 04:04:31;;;;;;;18.52;9.85;;;;;;;3.93;100.00;148652.16;1726780;81;21057;-59
2021/12/17 04:07:17;;;;;;;20.48;11.45;;;;;;;3.92;100.00;148649.56;1740821;80;21051;-58
2021/12/17 04:09:55;;;;;;;18.73;10.05;;;;;;;3.92;100.00;148649.56;1707133;82;21255;-59
2021/12/17 04:12:32;;;;;;;22.60;10.82;;;;;;;3.94;100.00;148654.73;1721094;80;21174;-59
2021/12/17 04:14:57;;;;;;;19.32;10.15;;;;;;;3.92;100.00;148649.56;1744675;80;21535;-60
2021/12/17 04:17:26;;;;;;;17.17;9.40;;;;;;;3.94;100.00;148654.73;1742633;80;21008;-59
2021/12/17 04:19:55;;;;;;;17.55;8.53;;;;;;;3.96;100.00;147888.22;1742732;80;21433;-58
2021/12/17 04:22:22;;;;;;;17.65;9.70;;;;;;;3.96;100.00;140923.55;1714142;81;21576;-60
2021/12/17 04:24:49;;;;;;;16.00;8.28;;;;;;;3.95;100.00;134916.83;1681692;83;21729;-59
2021/12/17 04:27:16;;;;;;;13.93;8.40;;;;;;;3.98;100.00;124650.67;1651930;84;21569;-59
2021/12/17 04:29:43;;;;;;;16.12;8.38;;;;;;;3.99;100.00;116116.44;1689161;83;22235;-59
2021/12/17 04:32:10;;;;;;;11.53;7.30;;;;;;;4.00;100.00;106410.84;1673962;83;21117;-58
2021/12/17 04:34:38;;;;;;;13.15;6.92;;;;;;;4.00;100.00;95712.69;1742957;80;20972;-60
2021/12/17 04:37:06;;;;;;;12.20;6.53;;;;;;;4.02;100.00;89955.13;1691792;81;20988;-60
2021/12/17 04:39:36;;;;;;;14.23;7.30;;;;;;;4.04;100.00;82855.84;1733344;80;21136;-60
2021/12/17 04:42:11;;;;;;;10.32;5.75;;;;;;;4.05;100.00;77286.28;1738500;80;21522;-58
2021/12/17 04:44:37;;;;;;;10.70;6.20;;;;;;;4.08;100.00;73245.38;1716907;80;21013;-60
2021/12/17 04:58:01;;;;;;;12.88;6.72;;;;;;;4.13;100.00;54266.28;1745894;79;21113;-59
2021/12/17 05:00:30;;;;;;;12.10;6.55;;;;;;;4.16;100.00;50919.71;1738707;80;21092;-59
2021/12/17 05:03:01;;;;;;;14.47;7.28;;;;;;;4.19;100.00;48746.54;1745681;80;21031;-58
2021/12/17 05:05:31;;;;;;;12.23;7.28;;;;;;;4.20;100.00;45904.20;1692797;82;21138;-58
2021/12/17 05:08:11;;;;;;;11.05;7.20;;;;;;;4.20;100.00;43731.94;1729086;81;21667;-59
2021/12/17 05:18:56;;;;;;;14.55;6.55;;;;;;;4.28;100.00;38730.09;1723221;81;20558;-59
2021/12/17 05:21:15;;;;;;;11.85;6.90;;;;;;;4.28;100.00;37562.91;1711776;81;21093;-58
2021/12/17 05:23:46;;;;;;;12.15;6.37;;;;;;;4.30;100.00;36563.86;1688852;82;21041;-59
2021/12/17 05:26:16;;;;;;;8.15;5.70;;;;;;;4.32;100.00;35564.38;1696338;82;21598;-59
2021/12/17 05:28:48;;;;;;;11.93;6.25;;;;;;;4.33;100.00;34565.47;1736807;80;21084;-58
2021/12/17 05:31:16;;;;;;;13.70;6.83;;;;;;;4.37;100.00;34401.10;1741418;80;21766;-58
2021/12/17 05:33:46;;;;;;;10.43;6.17;;;;;;;4.38;100.00;33735.60;1739048;80;21529;-58
2021/12/17 05:36:13;;;;;;;9.83;5.72;;;;;;;4.40;100.00;33236.79;1744906;79;21518;-60
2021/12/17 05:38:42;;;;;;;10.05;6.22;;;;;;;4.40;100.00;33403.37;1692319;81;21084;-60
2021/12/17 05:41:09;;;;;;;9.85;5.97;;;;;;;4.40;100.00;33403.37;1714908;80;21331;-60
2021/12/17 05:43:38;;;;;;;9.73;6.05;;;;;;;4.42;100.00;33071.45;1741901;79;22005;-59
2021/12/17 05:46:12;;;;;;;11.53;6.92;;;;;;;4.44;100.00;32406.44;1759561;80;21087;-60
2021/12/17 05:48:37;;;;;;;12.85;7.45;;;;;;;4.46;100.00;31408.21;1740591;80;21003;-60
2021/12/17 05:51:07;;;;;;;9.75;6.05;;;;;;;4.46;100.00;31242.00;1701545;80;21073;-59
2021/12/17 05:53:34;;;;;;;13.15;6.87;;;;;;;4.49;100.00;31243.77;1724482;80;20987;-60
2021/12/17 05:56:02;;;;;;;12.43;7.80;;;;;;;4.49;100.00;32242.63;1681499;83;21580;-60
2021/12/17 05:58:31;;;;;;;13.50;7.97;;;;;;;4.47;100.00;33907.27;1706439;81;21561;-61
2021/12/17 06:00:58;;;;;;;13.05;7.22;;;;;;;4.50;100.00;34576.09;1659162;83;21104;-61
2021/12/17 06:03:27;;;;;;;12.43;7.12;;;;;;;4.49;100.00;38911.58;1684113;83;20970;-60
2021/12/17 06:06:05;;;;;;;12.13;6.90;;;;;;;4.49;100.00;43086.23;1727671;80;21175;-59
2021/12/17 06:08:31;;;;;;;13.30;7.60;;;;;;;4.50;100.00;47935.77;1722956;80;21179;-60
2021/12/17 06:10:58;;;;;;;14.33;6.45;;;;;;;4.51;100.00;51285.44;1683992;82;22333;-60
2021/12/17 06:13:25;;;;;;;11.50;6.62;;;;;;;4.54;100.00;53634.19;1701988;81;21076;-61
2021/12/17 06:15:54;;;;;;;10.82;7.25;;;;;;;4.57;100.00;60763.81;1684453;83;21116;-60
2021/12/17 06:18:21;;;;;;;12.90;7.45;;;;;;;4.59;100.00;64048.35;1686786;82;21577;-59
2021/12/17 06:20:48;;;;;;;10.70;6.75;;;;;;;4.63;100.00;70279.50;1680472;83;21135;-59
2021/12/17 06:23:17;;;;;;;10.48;6.80;;;;;;;4.65;100.00;80236.55;1703194;81;21468;-59
2021/12/17 06:25:44;;;;;;;11.10;6.65;;;;;;;4.65;100.00;97174.68;1704544;82;21120;-61
2021/12/17 06:28:11;;;;;;;9.95;6.25;;;;;;;4.62;100.00;121534.09;1698992;81;21066;-60
2021/12/17 06:30:39;;;;;;;9.80;5.85;;;;;;;4.61;100.00;140389.06;1750920;80;21076;-60
2021/12/17 06:33:07;;;;;;;12.25;7.03;;;;;;;4.62;100.00;147790.25;1727774;80;21512;-60
2021/12/17 06:35:34;;;;;;;11.90;6.15;;;;;;;4.62;100.00;148822.63;1677838;84;21513;-62
2021/12/17 06:38:04;;;;;;;11.60;6.75;;;;;;;4.65;100.00;148830.36;1714092;82;21055;-62
2021/12/17 06:40:33;;;;;;;10.35;6.78;;;;;;;4.65;100.00;148830.36;1730131;82;21129;-60
2021/12/17 06:43:00;;;;;;;10.95;6.70;;;;;;;4.67;100.00;148835.53;1718937;82;21291;-61
2021/12/17 06:48:09;;;;;;;10.70;6.28;;;;;;;4.68;100.00;148839.42;1665109;81;21024;-60
2021/12/17 06:59:51;;;;;;;12.75;7.70;;;;;;;4.74;100.00;148853.59;1708305;81;21358;-60
2021/12/17 07:11:34;;;;;;;9.95;6.03;;;;;;;4.79;100.00;148866.56;1723379;81;21106;-61
2021/12/17 07:20:25;;;;;;;10.32;5.65;;;;;;;4.75;100.00;148856.17;1684105;83;21117;-60
2021/12/17 07:21:54;;;;;;;14.03;6.90;;;;;;;4.75;100.00;148856.17;1689599;81;21040;-60
2021/12/17 07:40:10;;;;;;;11.08;6.42;;;;;;;4.58;100.00;148814.88;1722402;80;21564;-63
2021/12/17 07:42:39;;;;;;;14.33;6.37;;;;;;;4.56;100.00;148809.72;1707469;81;24695;-60
2021/12/17 07:45:10;;;;;;;12.53;6.30;;;;;;;4.57;100.00;148812.28;1666151;82;21197;-61
2021/12/17 07:47:39;;;;;;;10.78;6.17;;;;;;;4.58;100.00;148814.88;1681454;83;21164;-59
2021/12/17 07:50:23;;;;;;;10.40;6.05;;;;;;;4.59;100.00;148817.45;1715730;81;21181;-59
2021/12/17 07:53:10;;;;;;;14.53;5.97;;;;;;;4.62;100.00;148822.63;1707953;81;21148;-59
2021/12/17 07:55:57;;;;;;;17.57;6.60;;;;;;;4.63;100.00;148825.19;1698639;82;21098;-60
2021/12/17 07:58:25;;;;;;;13.15;6.25;;;;;;;4.66;100.00;148832.94;1726981;80;21068;-59
2021/12/17 08:00:54;;;;;;;14.80;5.97;;;;;;;4.69;100.00;148842.00;1722049;80;21963;-59
2021/12/17 08:03:21;;;;;;;13.15;5.97;;;;;;;4.75;100.00;148856.17;1742245;80;21067;-61
2021/12/17 08:05:53;;;;;;;12.80;5.62;;;;;;;4.81;100.00;148870.41;1733938;80;21496;-60
2021/12/17 08:08:22;;;;;;;16.73;5.47;;;;;;;4.88;100.00;148889.78;1729400;80;22108;-61
2021/12/17 08:10:51;;;;;;;18.60;7.12;;;;;;;4.95;100.00;148905.28;1724161;80;21044;-59
2021/12/17 08:13:27;;;;;;;14.18;5.50;;;;;;;5.02;100.00;148923.41;1701352;82;21045;-59
2021/12/17 08:16:28;;;;;;;18.85;6.25;;;;;;;5.08;100.00;148938.91;1740582;80;21091;-60
2021/12/17 08:18:42;;;;;;;11.83;5.33;;;;;;;5.18;100.00;148962.14;1684303;81;21134;-60
2021/12/17 08:26:42;;;;;;;21.00;6.95;;;;;;;5.47;100.00;149034.56;1706476;80;21083;-61
2021/12/17 08:31:28;;;;;;;12.58;5.58;;;;;;;5.62;98.48;149073.31;1723343;81;21593;-59
2021/12/17 08:33:56;;;;;;;23.70;7.50;;;;;;;5.65;97.69;149081.09;1698085;80;21049;-59
2021/12/17 08:36:23;;;;;;;23.45;6.97;;;;;;;5.69;97.52;149090.12;1714075;80;21117;-59
2021/12/17 08:38:51;;;;;;;21.52;5.17;;;;;;;5.81;95.78;149119.86;1692366;81;21531;-58
2021/12/17 08:41:30;;;;;;;16.17;5.08;;;;;;;5.81;95.78;149119.86;1723095;80;21062;-60
2021/12/17 08:43:57;;;;;;;10.38;5.22;;;;;;;5.87;94.16;149135.41;1719327;80;21605;-60
2021/12/17 08:46:25;;;;;;;11.10;4.37;;;;;;;5.92;90.36;149147.02;1727124;81;21068;-62
2021/12/17 08:48:55;;;;;;;6.90;3.70;;;;;;;5.92;90.36;149147.02;1728966;81;21506;-58
2021/12/17 08:51:30;;;;;;;10.78;3.40;;;;;;;5.87;88.83;149135.41;1737153;80;21160;-59
2021/12/17 08:53:58;;;;;;;8.85;3.47;;;;;;;5.86;88.51;149132.81;1732988;80;21586;-62
2021/12/17 08:56:33;;;;;;;6.72;3.62;;;;;;;5.83;87.90;149125.02;1707806;80;21573;-61
2021/12/17 08:59:02;;;;;;;;;;;;;;;5.79;88.12;149114.69;1726383;80;21090;-59
2021/12/17 09:01:31;;;;;;;15.20;4.30;;;;;;;5.76;88.68;149108.25;1725722;80;20483;-59
2021/12/17 09:03:58;;;;;;;8.95;3.05;;;;;;;5.70;88.50;149094.02;1649820;84;21175;-59
2021/12/17 09:06:32;;;;;;;18.40;3.85;;;;;;;5.67;88.53;149084.95;1656224;83;21463;-59
2021/12/17 09:09:00;;;;;;;9.08;3.30;;;;;;;5.66;89.94;149083.69;1686286;82;21564;-63
2021/12/17 09:11:29;;;;;;;10.23;4.53;;;;;;;5.64;89.47;149077.20;1684894;82;21075;-60
2021/12/17 09:14:00;;;;;;;8.90;3.37;;;;;;;5.60;89.41;149068.13;1730928;80;21051;-59
2021/12/17 09:16:28;;;;;;;11.45;4.28;;;;;;;5.54;89.23;149052.64;1708649;81;21821;-60
2021/12/17 09:18:56;;;;;;;13.38;3.90;;;;;;;5.52;89.83;149047.47;1747408;79;21062;-59
2021/12/17 09:21:28;;;;;;;11.08;3.72;;;;;;;5.52;90.26;149047.47;1703348;81;21139;-58
2021/12/17 09:23:57;;;;;;;8.55;3.83;;;;;;;5.55;90.20;149055.22;1721884;81;21022;-58
2021/12/17 09:26:24;;;;;;;10.10;4.00;;;;;;;5.56;89.70;149059.12;1702801;81;21119;-58
2021/12/17 09:28:51;;;;;;;10.72;4.35;;;;;;;5.56;90.45;149057.80;1701741;81;21120;-58
2021/12/17 09:31:18;;;;;;;9.68;3.85;;;;;;;5.54;89.98;149052.64;1697869;82;21072;-59
2021/12/17 09:33:49;;;;;;;18.52;5.50;;;;;;;5.53;89.97;149051.37;1710387;81;21160;-58
2021/12/17 09:36:17;;;;;;;11.10;3.75;;;;;;;5.53;90.39;149050.06;1703626;81;21147;-59
2021/12/17 09:38:49;;;;;;;6.00;3.20;;;;;;;5.52;89.85;149047.47;1709349;81;21502;-61
2021/12/17 09:41:17;;;;;;;19.17;4.50;;;;;;;5.49;89.44;149039.72;1700091;82;21073;-60
2021/12/17 09:43:44;;;;;;;7.33;3.25;;;;;;;5.47;89.91;149035.81;1672961;83;21616;-60
2021/12/17 09:46:11;;;;;;;9.23;3.83;;;;;;;5.45;90.55;149030.66;1674253;83;21185;-60
2021/12/17 09:48:39;;;;;;;13.83;4.12;;;;;;;5.43;89.66;149025.48;1671825;83;21553;-59
2021/12/17 09:51:09;;;;;;;8.58;3.58;;;;;;;5.43;90.04;149025.48;1669463;83;21577;-59
2021/12/17 09:53:36;;;;;;;9.13;4.00;;;;;;;5.42;90.17;149024.22;1645903;83;21087;-61
2021/12/17 09:56:03;;;;;;;6.72;2.52;;;;;;;5.42;90.34;149024.22;1671854;82;21067;-60
2021/12/17 09:58:33;;;;;;;13.70;3.80;;;;;;;5.40;89.95;149019.00;1667302;83;21611;-60
2021/12/17 10:01:02;;;;;;;12.78;4.53;;;;;;;5.35;90.22;149004.83;1668657;82;22443;-59
2021/12/17 10:03:29;;;;;;;13.53;4.30;;;;;;;5.35;90.22;149004.83;1674287;82;21214;-59
2021/12/17 10:05:56;;;;;;;9.80;4.47;;;;;;;5.41;91.08;149021.59;1678007;82;21739;-58
2021/12/17 10:08:24;;;;;;;20.80;7.20;;;;;;;5.41;91.08;149021.59;1674649;83;21084;-60
2021/12/17 10:11:03;;;;;;;7.87;3.98;;;;;;;5.43;91.03;149025.48;1715791;81;21129;-59
2021/12/17 10:13:33;;;;;;;6.97;3.70;;;;;;;5.45;91.55;149031.97;1706409;81;21133;-60
2021/12/17 10:16:06;;;;;;;7.65;3.65;;;;;;;5.45;91.31;149031.97;1702527;81;21098;-60
2021/12/17 10:18:43;;;;;;;14.13;4.90;;;;;;;5.41;91.07;149021.59;1728252;80;21150;-60
2021/12/17 10:21:11;;;;;;;;;;;;;;;5.42;91.36;149024.22;1702864;81;21172;-59
2021/12/17 10:23:40;;;;;;;14.63;4.50;;;;;;;5.38;92.16;149013.84;1727004;80;21508;-59
2021/12/17 10:26:13;;;;;;;9.30;4.00;;;;;;;5.38;92.16;149013.84;1702343;82;21134;-59
2021/12/17 10:28:57;;;;;;;7.65;3.42;;;;;;;5.39;92.37;149015.16;1735629;80;21160;-59
2021/12/17 10:31:25;;;;;;;9.23;3.42;;;;;;;5.37;92.78;149011.25;1725482;80;21065;-58
2021/12/17 10:33:54;;;;;;;12.00;3.85;;;;;;;5.38;92.79;149012.58;1717928;80;21581;-60
2021/12/17 10:36:40;;;;;;;12.35;5.33;;;;;;;5.37;92.84;149011.25;1734438;80;21791;-59
2021/12/17 10:39:22;;;;;;;11.33;4.80;;;;;;;5.37;92.90;149011.25;1714291;80;21103;-60
2021/12/17 10:41:50;;;;;;;10.60;3.85;;;;;;;5.32;92.46;148998.34;1713216;80;21089;-58
2021/12/17 10:44:18;;;;;;;11.15;4.35;;;;;;;5.33;92.33;149000.92;1742988;80;21067;-60
2021/12/17 10:47:30;;;;;;;9.50;4.08;;;;;;;5.34;92.33;149003.52;1735592;80;21621;-58
2021/12/17 10:49:55;;;;;;;8.85;4.17;;;;;;;5.33;92.23;149000.92;1723335;79;21150;-59
2021/12/17 10:52:30;;;;;;;9.70;4.12;;;;;;;5.30;91.94;148993.19;1713571;81;21777;-59
2021/12/17 10:55:14;;;;;;;15.80;5.70;;;;;;;5.27;91.33;148985.44;1725180;79;21295;-60
2021/12/17 10:57:42;;;;;;;9.55;3.37;;;;;;;5.26;91.98;148982.84;1732661;80;21080;-58
2021/12/17 11:00:10;;;;;;;11.28;4.22;;;;;;;5.31;92.62;148995.77;1726916;80;21581;-58
2021/12/17 11:02:37;;;;;;;10.38;4.28;;;;;;;5.36;92.87;149007.41;1739430;80;21454;-58
2021/12/17 11:05:13;;;;;;;12.95;4.85;;;;;;;5.38;92.83;149013.84;1740376;79;21132;-60
2021/12/17 11:07:42;;;;;;;12.23;3.55;;;;;;;5.48;93.02;149037.14;1746629;79;20883;-58
2021/12/17 11:10:10;;;;;;;8.70;3.60;;;;;;;5.54;91.94;149052.64;1738208;79;21080;-58
2021/12/17 11:12:40;;;;;;;8.88;3.30;;;;;;;5.51;91.98;149044.89;1739055;80;21394;-59
2021/12/17 11:15:25;;;;;;;9.58;3.40;;;;;;;5.52;91.52;149047.47;1709390;81;21976;-61
2021/12/17 11:18:01;;;;;;;9.38;4.20;;;;;;;5.49;91.36;149039.72;1666056;83;22227;-58
2021/12/17 11:20:32;;;;;;;11.35;3.87;;;;;;;5.49;91.46;149039.72;1674555;84;21062;-59
2021/12/17 11:23:05;;;;;;;15.23;3.33;;;;;;;5.48;91.00;149037.14;1734142;80;21150;-60
2021/12/17 11:25:32;;;;;;;10.32;3.50;;;;;;;5.48;91.00;149037.14;1725536;80;21531;-59
2021/12/17 11:27:59;;;;;;;8.53;3.50;;;;;;;5.44;91.36;149029.39;1723661;80;21095;-59
2021/12/17 11:30:31;;;;;;;11.78;4.90;;;;;;;5.50;92.69;149042.31;1682176;81;21901;-60
2021/12/17 11:33:01;;;;;;;11.80;3.45;;;;;;;5.50;92.69;149042.31;1674100;82;21074;-59
2021/12/17 11:35:29;;;;;;;8.95;2.98;;;;;;;5.58;92.91;149062.97;1656552;83;21055;-59
2021/12/17 11:38:10;;;;;;;19.90;5.08;;;;;;;5.59;91.74;149066.88;1713786;81;21042;-59
2021/12/17 11:41:03;;;;;;;10.00;3.30;;;;;;;5.55;91.39;149055.22;1663693;83;21149;-58
2021/12/17 11:43:54;;;;;;;9.78;3.40;;;;;;;5.51;91.78;149044.89;1664322;83;21475;-59
2021/12/17 11:46:28;;;;;;;8.50;3.75;;;;;;;5.52;91.56;149047.47;1705915;81;21734;-59
2021/12/17 11:49:08;;;;;;;10.40;4.30;;;;;;;5.51;90.72;149044.89;1672494;82;21727;-60
2021/12/17 11:51:36;;;;;;;11.28;3.55;;;;;;;5.50;90.41;149042.31;1672762;83;21098;-59
2021/12/17 11:54:13;;;;;;;15.88;4.95;;;;;;;5.48;90.47;149037.14;1699836;81;21120;-59
2021/12/17 11:56:52;;;;;;;13.93;4.22;;;;;;;5.48;90.72;149037.14;1676580;82;22102;-60
2021/12/17 11:59:33;;;;;;;11.30;4.35;;;;;;;5.50;90.88;149042.31;1687434;81;21598;-59
2021/12/17 12:02:22;;;;;;;27.80;5.65;;;;;;;5.50;90.64;149042.31;1691083;81;21091;-58
2021/12/17 12:04:58;;;;;;;11.03;3.67;;;;;;;5.53;90.91;149050.06;1697229;82;21097;-59
2021/12/17 12:07:43;;;;;;;6.95;3.42;;;;;;;5.54;90.16;149052.64;1706777;81;22501;-59
2021/12/17 12:10:21;;;;;;;6.92;2.83;;;;;;;5.54;89.41;149052.64;1672777;82;22401;-60
2021/12/17 12:12:51;;;;;;;10.63;3.90;;;;;;;5.56;87.86;149059.12;1673569;83;21130;-60
2021/12/17 12:15:31;;;;;;;15.93;4.75;;;;;;;5.64;88.10;149078.52;1727383;79;21080;-59
2021/12/17 12:18:10;;;;;;;10.33;3.10;;;;;;;5.64;88.10;149078.52;1729757;80;21062;-59
2021/12/17 12:21:06;;;;;;;8.13;2.83;;;;;;;5.71;87.16;149096.59;1692861;81;21209;-59
2021/12/17 12:23:40;;;;;;;9.28;2.42;;;;;;;5.72;85.94;149099.19;1737544;80;21049;-59
2021/12/17 12:26:23;;;;;;;7.35;2.92;;;;;;;5.72;85.94;149099.19;1728074;80;21105;-60
2021/12/17 12:28:58;;;;;;;8.63;3.00;;;;;;;5.73;84.98;149101.77;1733036;81;20989;-59
2021/12/17 12:31:38;;;;;;;10.40;3.37;;;;;;;5.72;83.75;149097.87;1740919;79;21071;-60
2021/12/17 12:34:13;;;;;;;6.70;2.60;;;;;;;5.70;84.00;149094.02;1743744;80;21111;-60
2021/12/17 12:37:05;;;;;;;5.60;2.42;;;;;;;5.66;82.85;149083.69;1742508;79;20980;-59
2021/12/17 12:39:47;;;;;;;8.30;2.60;;;;;;;5.62;82.23;149073.31;1743115;80;21051;-61
2021/12/17 12:42:35;;;;;;;7.60;2.52;;;;;;;5.56;81.67;149057.80;1725658;80;21059;-60
2021/12/17 12:45:10;;;;;;;6.33;2.67;;;;;;;5.53;80.36;149051.37;1722079;82;21086;-61
2021/12/17 12:47:45;;;;;;;6.30;3.08;;;;;;;5.53;80.36;149051.37;1733991;80;21122;-60
2021/12/17 12:50:19;;;;;;;7.62;2.72;;;;;;;5.54;80.52;149052.64;1740109;79;21131;-59
2021/12/17 12:53:10;;;;;;;7.75;3.17;;;;;;;5.54;80.52;149052.64;1724524;80;21101;-60
2021/12/17 12:55:43;;;;;;;9.80;4.15;;;;;;;5.56;80.73;149057.80;1715057;81;20994;-59
2021/12/17 12:58:14;;;;;;;11.40;4.15;;;;;;;5.54;80.82;149053.95;1689817;81;21619;-58
2021/12/17 13:00:57;;;;;;;7.47;3.10;;;;;;;5.57;81.41;149060.39;1712782;81;21746;-60
2021/12/17 13:03:33;;;;;;;8.10;3.08;;;;;;;5.54;80.97;149053.95;1697388;81;21103;-60
2021/12/17 13:06:01;;;;;;;6.05;2.65;;;;;;;5.53;81.50;149051.37;1657108;82;21157;-59
2021/12/17 13:08:30;;;;;;;6.85;3.10;;;;;;;5.52;81.61;149047.47;1715607;80;21155;-59
2021/12/17 13:11:06;;;;;;;8.03;2.77;;;;;;;5.48;81.54;149037.14;1700486;81;21530;-59
2021/12/17 13:13:51;;;;;;;8.38;2.83;;;;;;;5.45;81.87;149031.97;1715630;81;21639;-60
2021/12/17 13:16:22;;;;;;;15.40;4.40;;;;;;;5.44;82.74;149029.39;1706182;80;21124;-59
2021/12/17 13:24:20;;;;;;;10.30;2.85;;;;;;;5.50;82.51;149042.31;1714746;80;21067;-60
2021/12/17 13:26:56;;;;;;;9.28;3.37;;;;;;;5.47;82.07;149034.56;1733835;79;21670;-59
2021/12/17 13:29:35;;;;;;;15.20;4.10;;;;;;;5.43;81.66;149026.81;1733226;80;21676;-60
2021/12/17 13:32:09;;;;;;;10.75;3.08;;;;;;;5.42;81.69;149022.91;1733615;80;21515;-58
2021/12/17 13:34:49;;;;;;;6.60;2.62;;;;;;;5.39;81.16;149016.42;1737904;80;21756;-60
2021/12/17 13:37:24;;;;;;;5.80;2.40;;;;;;;5.37;80.98;149009.98;1732873;79;21100;-59
2021/12/17 13:39:58;;;;;;;;;;;;;;;5.34;80.17;149003.52;1714124;80;21083;-60
2021/12/17 13:42:29;;;;;;;8.25;2.98;;;;;;;5.30;79.98;148993.19;1737894;80;20237;-58
2021/12/17 13:45:02;;;;;;;18.20;3.62;;;;;;;5.28;80.34;148988.02;1732776;80;21115;-60
2021/12/17 13:47:47;;;;;;;8.40;2.90;;;;;;;5.27;80.22;148985.44;1722805;80;21203;-59
2021/12/17 13:50:29;;;;;;;17.25;3.30;;;;;;;5.26;80.12;148984.13;1721025;80;21176;-59
2021/12/17 13:53:06;;;;;;;8.63;4.12;;;;;;;5.24;79.80;148977.69;1732446;78;22340;-58
2021/12/17 13:55:42;;;;;;;12.85;4.20;;;;;;;5.23;79.93;148976.37;1695589;80;21100;-59
2021/12/17 13:58:12;;;;;;;9.18;3.45;;;;;;;5.22;80.19;148972.52;1739730;80;21088;-59
2021/12/17 14:00:44;;;;;;;7.42;3.77;;;;;;;5.20;80.56;148968.62;1740786;79;21095;-59
2021/12/17 14:03:13;;;;;;;11.08;4.25;;;;;;;5.21;81.06;148971.20;1715615;80;21268;-60
2021/12/17 14:05:56;;;;;;;12.50;4.22;;;;;;;5.20;81.36;148967.34;1729619;81;21670;-61
2021/12/17 14:08:11;;;;;;;12.05;3.00;;;;;;;5.23;83.30;148975.09;1684699;81;21075;-59
2021/12/17 14:10:38;;;;;;;9.23;3.00;;;;;;;5.23;83.30;148975.09;1728243;80;21068;-59
2021/12/17 14:13:20;;;;;;;8.05;3.47;;;;;;;5.22;84.01;148972.52;1737134;80;21088;-59
2021/12/17 14:15:47;;;;;;;16.02;4.42;;;;;;;5.15;84.34;148956.97;1706166;82;21664;-61
2021/12/17 14:18:20;;;;;;;11.08;4.15;;;;;;;5.05;84.99;148929.84;1695981;81;21144;-59
2021/12/17 14:20:52;;;;;;;18.52;5.28;;;;;;;4.94;85.90;148902.69;1665232;81;21144;-60
2021/12/17 14:23:24;;;;;;;14.45;3.77;;;;;;;4.86;86.19;148884.63;1701516;81;21558;-61